createdAt,value
2022-11-28T00:00:21.908Z,99645.81
2022-11-28T00:01:06.046Z,99650.78
2022-11-28T00:01:48.478Z,99664.31
2022-11-28T00:02:30.251Z,99655.59
2022-11-28T00:03:12.154Z,99660.31
2022-11-28T00:03:54.340Z,99666.09
2022-11-28T00:04:36.205Z,99652.72
2022-11-28T00:05:18.045Z,99661.16
2022-11-28T00:06:09.182Z,99664.59
2022-11-28T00:06:51.081Z,99643.97
2022-11-28T00:07:33.032Z,99662.28
2022-11-28T00:08:14.908Z,99627.34
2022-11-28T00:08:59.950Z,99652.38
2022-11-28T00:09:41.653Z,99658.53
2022-11-28T00:10:23.442Z,99664.31
2022-11-28T00:11:06.989Z,99656.09
2022-11-28T00:11:49.710Z,99662.69
2022-11-28T00:12:31.444Z,99653.53
2022-11-28T00:13:13.605Z,99621.88
2022-11-28T00:13:55.781Z,99652.41
2022-11-28T00:14:37.496Z,99652.56
2022-11-28T00:15:19.237Z,99649.09
2022-11-28T00:16:03.427Z,99641.00
2022-11-28T00:16:46.174Z,99654.38
2022-11-28T00:17:27.938Z,99628.13
2022-11-28T00:18:10.608Z,99651.50
2022-11-28T00:18:54.578Z,99649.72
2022-11-28T00:19:36.347Z,99653.63
2022-11-28T00:20:18.137Z,99649.34
2022-11-28T00:21:01.466Z,99637.94
2022-11-28T00:21:43.210Z,99651.31
2022-11-28T00:22:27.746Z,99635.78
2022-11-28T00:23:09.504Z,99639.91
2022-11-28T00:23:52.281Z,99628.59
2022-11-28T00:24:33.998Z,99648.72
2022-11-28T00:25:15.772Z,99652.19
2022-11-28T00:25:58.928Z,99628.13
2022-11-28T00:26:41.932Z,99647.75
2022-11-28T00:27:24.335Z,99646.63
2022-11-28T00:28:06.110Z,99616.47
2022-11-28T00:28:48.523Z,99644.19
2022-11-28T00:29:30.233Z,99640.06
2022-11-28T00:30:12.442Z,99642.69
2022-11-28T00:30:54.281Z,99644.53
2022-11-28T00:31:42.346Z,99628.53
2022-11-28T00:32:24.619Z,99617.44
2022-11-28T00:33:06.298Z,99616.63
2022-11-28T00:33:48.316Z,99640.25
2022-11-28T00:34:30.013Z,99628.22
2022-11-28T00:35:11.698Z,99635.47
2022-11-28T00:36:05.441Z,99619.66
2022-11-28T00:36:48.101Z,99633.53
2022-11-28T00:37:29.781Z,99628.13
2022-11-28T00:38:11.529Z,99614.25
2022-11-28T00:38:53.740Z,99637.50
2022-11-28T00:39:35.488Z,99632.91
2022-11-28T00:40:17.248Z,99626.00
2022-11-28T00:41:04.289Z,99626.16
2022-11-28T00:41:46.092Z,99615.44
2022-11-28T00:42:27.793Z,99609.00
2022-11-28T00:43:10.588Z,99622.16
2022-11-28T00:43:53.152Z,99627.75
2022-11-28T00:44:34.851Z,99622.81
2022-11-28T00:45:16.587Z,99559.78
2022-11-28T00:45:58.391Z,99624.94
2022-11-28T00:46:40.539Z,99619.00
2022-11-28T00:47:22.196Z,99631.47
2022-11-28T00:48:04.079Z,99606.75
2022-11-28T00:48:46.306Z,99627.13
2022-11-28T00:49:27.974Z,99627.97
2022-11-28T00:50:09.885Z,99608.03
2022-11-28T00:50:52.140Z,99594.31
2022-11-28T00:51:35.206Z,99597.91
2022-11-28T00:52:16.858Z,99617.25
2022-11-28T00:52:58.509Z,99627.09
2022-11-28T00:53:42.642Z,99623.63
2022-11-28T00:54:24.411Z,99623.63
2022-11-28T00:55:06.405Z,99614.25
2022-11-28T00:55:48.270Z,99619.50
2022-11-28T00:56:40.305Z,99619.66
2022-11-28T00:57:22.018Z,99613.56
2022-11-28T00:58:04.012Z,99615.53
2022-11-28T00:58:46.004Z,99619.94
2022-11-28T00:59:27.736Z,99617.31
2022-11-28T01:00:09.877Z,99618.16
2022-11-28T01:00:51.711Z,99579.63
2022-11-28T01:01:37.085Z,99611.78
2022-11-28T01:02:18.879Z,99610.81
2022-11-28T01:03:00.675Z,99609.59
2022-11-28T01:03:43.055Z,99606.66
2022-11-28T01:04:25.234Z,99577.59
2022-11-28T01:05:07.378Z,99582.69
2022-11-28T01:05:49.118Z,99608.28
2022-11-28T01:06:38.936Z,99605.16
2022-11-28T01:07:20.716Z,99605.84
2022-11-28T01:08:02.393Z,99611.09
2022-11-28T01:08:44.061Z,99602.53
2022-11-28T01:09:25.948Z,99585.38
2022-11-28T01:10:10.113Z,99608.94
2022-11-28T01:10:51.780Z,99611.88
2022-11-28T01:11:33.975Z,99603.16
2022-11-28T01:12:15.753Z,99571.47
2022-11-28T01:12:57.363Z,99596.56
2022-11-28T01:13:40.272Z,99598.38
2022-11-28T01:14:24.433Z,99594.91
2022-11-28T01:15:08.315Z,99580.22
2022-11-28T01:15:50.099Z,99585.03
2022-11-28T01:16:32.171Z,99593.44
2022-11-28T01:17:13.827Z,99578.13
2022-11-28T01:17:55.519Z,99581.78
2022-11-28T01:18:38.175Z,99581.78
2022-11-28T01:19:20.109Z,99554.22
2022-11-28T01:20:03.678Z,99573.31
2022-11-28T01:20:45.485Z,99580.06
2022-11-28T01:21:27.875Z,99583.00
2022-11-28T01:22:09.510Z,99583.16
2022-11-28T01:22:51.210Z,99583.97
2022-11-28T01:23:33.541Z,99589.38
2022-11-28T01:24:15.862Z,99591.69
2022-11-28T01:24:57.523Z,99567.13
2022-11-28T01:25:39.250Z,99590.72
2022-11-28T01:26:27.027Z,99588.78
2022-11-28T01:27:08.687Z,99588.78
2022-11-28T01:27:51.894Z,99559.75
2022-11-28T01:28:34.471Z,99583.97
2022-11-28T01:29:16.555Z,99579.34
2022-11-28T01:29:58.249Z,99587.56
2022-11-28T01:30:39.898Z,99595.44
2022-11-28T01:31:27.281Z,99596.28
2022-11-28T01:32:09.082Z,99600.06
2022-11-28T01:32:50.720Z,99599.22
2022-11-28T01:33:32.467Z,99587.91
2022-11-28T01:34:14.107Z,99598.91
2022-11-28T01:34:55.793Z,99580.63
2022-11-28T01:35:37.487Z,99595.69
2022-11-28T01:36:20.389Z,99593.72
2022-11-28T01:37:02.122Z,99594.41
2022-11-28T01:37:43.783Z,99563.06
2022-11-28T01:38:26.263Z,99598.16
2022-11-28T01:39:08.084Z,99604.38
2022-11-28T01:39:49.789Z,99603.34
2022-11-28T01:40:31.768Z,99592.91
2022-11-28T01:41:16.119Z,99609.72
2022-11-28T01:41:57.808Z,99612.03
2022-11-28T01:42:39.584Z,99579.06
2022-11-28T01:43:22.717Z,99575.31
2022-11-28T01:44:27.599Z,99594.81
2022-11-28T01:45:31.944Z,99607.53
2022-11-28T01:46:13.890Z,99600.00
2022-11-28T01:46:56.003Z,99574.16
2022-11-28T01:47:37.936Z,99599.41
2022-11-28T01:48:26.444Z,99597.28
2022-11-28T01:49:17.487Z,99589.06
2022-11-28T01:50:00.284Z,99590.22
2022-11-28T01:50:46.003Z,99588.44
2022-11-28T01:51:29.648Z,99584.97
2022-11-28T01:52:15.236Z,99560.28
2022-11-28T01:53:01.845Z,99561.44
2022-11-28T01:53:47.076Z,99566.25
2022-11-28T01:54:31.171Z,99569.31
2022-11-28T01:55:17.088Z,99578.19
2022-11-28T01:56:23.091Z,99574.53
2022-11-28T01:57:08.123Z,99576.78
2022-11-28T01:57:51.074Z,99560.16
2022-11-28T01:58:36.283Z,99561.25
2022-11-28T01:59:20.519Z,99534.81
2022-11-28T02:00:09.046Z,99567.91
2022-11-28T02:00:56.776Z,99572.34
2022-11-28T02:01:43.966Z,99573.47
2022-11-28T02:02:47.993Z,99567.88
2022-11-28T02:03:50.543Z,99566.38
2022-11-28T02:04:34.141Z,99572.59
2022-11-28T02:05:17.673Z,99570.94
2022-11-28T02:05:59.653Z,99560.09
2022-11-28T02:06:42.501Z,99566.22
2022-11-28T02:07:24.171Z,99568.38
2022-11-28T02:08:08.279Z,99529.72
2022-11-28T02:08:52.344Z,99558.78
2022-11-28T02:09:34.021Z,99568.50
2022-11-28T02:10:20.616Z,99562.72
2022-11-28T02:11:12.135Z,99546.81
2022-11-28T02:12:05.910Z,99568.78
2022-11-28T02:13:05.712Z,99562.84
2022-11-28T02:14:03.357Z,99549.13
2022-11-28T02:15:15.818Z,99553.78
2022-11-28T02:16:09.203Z,99552.63
2022-11-28T02:17:15.340Z,99541.00
2022-11-28T02:18:21.844Z,99536.03
2022-11-28T02:19:16.527Z,99535.81
2022-11-28T02:20:19.778Z,99534.31
2022-11-28T02:21:24.828Z,99523.59
2022-11-28T02:22:25.278Z,99526.84
2022-11-28T02:23:26.485Z,99504.75
2022-11-28T02:24:39.814Z,99522.34
2022-11-28T02:25:49.847Z,99497.66
2022-11-28T02:26:40.596Z,99514.47
2022-11-28T02:27:35.219Z,99511.38
2022-11-28T02:28:50.783Z,99505.16
2022-11-28T02:29:54.179Z,99507.41
2022-11-28T02:30:57.706Z,99510.81
2022-11-28T02:32:16.621Z,99526.22
2022-11-28T02:33:12.925Z,99529.81
2022-11-28T02:34:03.627Z,99528.97
2022-11-28T02:35:22.365Z,99527.84
2022-11-28T02:36:09.524Z,99527.94
2022-11-28T02:37:00.898Z,99520.34
2022-11-28T02:38:09.961Z,99498.97
2022-11-28T02:39:06.521Z,99535.22
2022-11-28T02:40:06.675Z,99540.81
2022-11-28T02:41:06.467Z,99539.59
2022-11-28T02:41:57.032Z,99528.22
2022-11-28T02:42:59.578Z,99539.59
2022-11-28T02:43:48.552Z,99533.06
2022-11-28T02:45:11.428Z,99487.19
2022-11-28T02:46:05.947Z,99520.19
2022-11-28T02:46:57.733Z,99506.38
2022-11-28T02:47:45.111Z,99516.25
2022-11-28T02:48:48.293Z,99507.56
2022-11-28T02:49:38.095Z,99480.81
2022-11-28T02:50:28.395Z,99514.69
2022-11-28T02:51:23.759Z,99512.19
2022-11-28T02:52:12.153Z,99512.09
2022-11-28T02:53:06.150Z,99520.13
2022-11-28T02:53:49.494Z,99519.63
2022-11-28T02:54:32.488Z,99530.13
2022-11-28T02:55:15.220Z,99534.22
2022-11-28T02:55:59.128Z,99530.13
2022-11-28T02:56:51.144Z,99524.50
2022-11-28T02:57:41.140Z,99542.09
2022-11-28T02:58:22.776Z,99539.50
2022-11-28T02:59:18.752Z,99538.69
2022-11-28T03:00:00.365Z,99541.97
2022-11-28T03:00:44.617Z,99519.94
2022-11-28T03:01:31.082Z,99497.22
2022-11-28T03:02:32.404Z,99508.66
2022-11-28T03:03:42.415Z,99524.69
2022-11-28T03:04:48.396Z,99520.25
2022-11-28T03:05:42.852Z,99526.84
2022-11-28T03:06:40.335Z,99523.91
2022-11-28T03:07:28.039Z,99525.53
2022-11-28T03:08:27.952Z,99527.00
2022-11-28T03:09:48.613Z,99529.88
2022-11-28T03:10:52.348Z,99524.88
2022-11-28T03:11:45.736Z,99534.41
2022-11-28T03:12:48.587Z,99534.56
2022-11-28T03:13:50.694Z,99527.50
2022-11-28T03:14:41.208Z,99526.22
2022-11-28T03:15:32.392Z,99523.28
2022-11-28T03:16:26.678Z,99533.34
2022-11-28T03:17:14.519Z,99526.13
2022-11-28T03:18:16.457Z,99526.63
2022-11-28T03:19:13.091Z,99521.22
2022-11-28T03:20:09.736Z,99508.88
2022-11-28T03:21:00.844Z,99523.03
2022-11-28T03:22:04.715Z,99497.47
2022-11-28T03:23:10.095Z,99518.59
2022-11-28T03:24:01.139Z,99522.19
2022-11-28T03:25:05.993Z,99489.59
2022-11-28T03:26:12.500Z,99510.03
2022-11-28T03:27:07.998Z,99513.19
2022-11-28T03:28:14.368Z,99515.50
2022-11-28T03:29:21.833Z,99490.00
2022-11-28T03:30:16.923Z,99483.28
2022-11-28T03:31:03.410Z,99508.16
2022-11-28T03:32:11.829Z,99501.06
2022-11-28T03:32:55.959Z,99465.50
2022-11-28T03:33:43.648Z,99491.19
2022-11-28T03:34:37.670Z,99503.06
2022-11-28T03:35:23.434Z,99499.44
2022-11-28T03:36:12.011Z,99490.91
2022-11-28T03:37:08.603Z,99459.69
2022-11-28T03:38:05.046Z,99461.81
2022-11-28T03:38:54.174Z,99492.44
2022-11-28T03:39:43.999Z,99498.81
2022-11-28T03:40:30.700Z,99495.69
2022-11-28T03:41:19.054Z,99484.47
2022-11-28T03:42:09.618Z,99457.94
2022-11-28T03:42:58.737Z,99477.06
2022-11-28T03:43:49.989Z,99455.16
2022-11-28T03:44:44.270Z,99492.56
2022-11-28T03:45:31.670Z,99460.25
2022-11-28T03:46:18.394Z,99451.38
2022-11-28T03:47:02.321Z,99479.19
2022-11-28T03:47:47.631Z,99484.31
2022-11-28T03:48:38.899Z,99489.41
2022-11-28T03:49:29.004Z,99472.63
2022-11-28T03:50:25.724Z,99457.28
2022-11-28T03:51:39.657Z,99488.72
2022-11-28T03:52:36.174Z,99476.22
2022-11-28T03:53:24.337Z,99478.47
2022-11-28T03:54:13.930Z,99497.44
2022-11-28T03:55:32.649Z,99491.88
2022-11-28T03:56:39.967Z,99486.19
2022-11-28T03:57:35.194Z,99496.19
2022-11-28T03:58:25.225Z,99497.03
2022-11-28T03:59:31.948Z,99498.69
2022-11-28T04:00:14.668Z,99470.34
2022-11-28T04:01:12.111Z,99490.78
2022-11-28T04:02:00.676Z,99457.72
2022-11-28T04:03:17.698Z,99476.72
2022-11-28T04:04:14.263Z,99470.16
2022-11-28T04:04:55.853Z,99480.53
2022-11-28T04:05:53.953Z,99472.81
2022-11-28T04:06:47.951Z,99476.94
2022-11-28T04:08:10.930Z,99485.50
2022-11-28T04:09:00.727Z,99454.66
2022-11-28T04:09:47.574Z,99466.84
2022-11-28T04:10:41.226Z,99369.19
2022-11-28T04:11:30.993Z,99484.59
2022-11-28T04:12:31.255Z,99482.31
2022-11-28T04:13:21.393Z,99493.13
2022-11-28T04:14:21.600Z,99489.81
2022-11-28T04:15:16.001Z,99461.47
2022-11-28T04:16:38.074Z,99490.59
2022-11-28T04:17:27.021Z,99485.13
2022-11-28T04:18:26.933Z,99492.69
2022-11-28T04:19:22.866Z,99477.41
2022-11-28T04:20:41.817Z,99487.66
2022-11-28T04:21:35.373Z,99496.19
2022-11-28T04:22:23.206Z,99496.19
2022-11-28T04:23:09.222Z,99479.88
2022-11-28T04:23:55.074Z,99490.53
2022-11-28T04:24:42.991Z,99475.19
2022-11-28T04:25:27.885Z,99498.94
2022-11-28T04:26:20.212Z,99502.69
2022-11-28T04:27:09.584Z,99500.69
2022-11-28T04:28:07.354Z,99493.16
2022-11-28T04:28:50.490Z,99501.84
2022-11-28T04:29:37.898Z,99496.97
2022-11-28T04:30:19.710Z,99489.09
2022-11-28T04:31:04.381Z,99483.84
2022-11-28T04:31:48.937Z,99488.63
2022-11-28T04:32:34.410Z,99489.97
2022-11-28T04:33:21.315Z,99502.16
2022-11-28T04:34:07.215Z,99468.09
2022-11-28T04:34:55.006Z,99501.34
2022-11-28T04:35:42.307Z,99498.91
2022-11-28T04:36:26.056Z,99494.28
2022-11-28T04:37:09.991Z,99490.50
2022-11-28T04:37:53.518Z,99508.09
2022-11-28T04:38:36.489Z,99502.16
2022-11-28T04:39:21.716Z,99506.00
2022-11-28T04:40:05.796Z,99496.47
2022-11-28T04:40:52.871Z,99496.16
2022-11-28T04:41:40.543Z,99497.81
2022-11-28T04:42:30.049Z,99493.53
2022-11-28T04:43:20.210Z,99474.75
2022-11-28T04:44:23.396Z,99480.81
2022-11-28T04:45:45.041Z,99480.00
2022-11-28T04:46:33.588Z,99488.84
2022-11-28T04:47:15.740Z,99474.84
2022-11-28T04:47:58.026Z,99461.16
2022-11-28T04:48:39.733Z,99435.47
2022-11-28T04:49:23.884Z,99468.41
2022-11-28T04:50:06.500Z,99478.22
2022-11-28T04:51:17.640Z,99445.81
2022-11-28T04:52:06.356Z,99473.94
2022-11-28T04:53:14.254Z,99483.63
2022-11-28T04:54:10.058Z,99479.16
2022-11-28T04:55:10.255Z,99446.38
2022-11-28T04:55:58.735Z,99478.59
2022-11-28T04:56:46.684Z,99470.81
2022-11-28T04:57:34.632Z,99485.25
2022-11-28T04:58:21.357Z,99487.19
2022-11-28T04:59:06.128Z,99482.56
2022-11-28T04:59:48.730Z,99480.78
2022-11-28T05:00:34.496Z,99485.94
2022-11-28T05:01:22.477Z,99485.63
2022-11-28T05:02:05.855Z,99485.34
2022-11-28T05:02:51.683Z,99460.16
2022-11-28T05:03:33.638Z,99469.22
2022-11-28T05:04:17.191Z,99451.81
2022-11-28T05:04:59.670Z,99471.59
2022-11-28T05:05:47.637Z,99486.94
2022-11-28T05:06:33.039Z,99488.44
2022-11-28T05:07:14.925Z,99467.69
2022-11-28T05:07:59.416Z,99487.16
2022-11-28T05:08:42.217Z,99459.44
2022-11-28T05:09:23.886Z,99494.19
2022-11-28T05:10:07.263Z,99499.59
2022-11-28T05:10:49.498Z,99494.66
2022-11-28T05:11:32.114Z,99501.56
2022-11-28T05:12:13.927Z,99479.84
2022-11-28T05:12:55.635Z,99501.41
2022-11-28T05:13:37.272Z,99501.25
2022-11-28T05:14:19.035Z,99494.66
2022-11-28T05:15:00.722Z,99490.75
2022-11-28T05:15:42.364Z,99490.75
2022-11-28T05:16:24.504Z,99484.59
2022-11-28T05:17:06.764Z,99490.22
2022-11-28T05:17:48.453Z,99474.22
2022-11-28T05:18:30.115Z,99489.84
2022-11-28T05:19:12.024Z,99489.38
2022-11-28T05:19:53.830Z,99453.28
2022-11-28T05:20:37.161Z,99438.41
2022-11-28T05:21:18.842Z,99468.19
2022-11-28T05:22:00.505Z,99491.09
2022-11-28T05:22:42.146Z,99490.25
2022-11-28T05:23:23.756Z,99494.53
2022-11-28T05:24:05.779Z,99494.38
2022-11-28T05:24:47.547Z,99498.66
2022-11-28T05:25:29.213Z,99493.41
2022-11-28T05:26:14.357Z,99488.69
2022-11-28T05:26:56.000Z,99484.84
2022-11-28T05:27:37.768Z,99450.66
2022-11-28T05:28:19.516Z,99455.63
2022-11-28T05:29:02.120Z,99486.09
2022-11-28T05:29:51.922Z,99478.19
2022-11-28T05:30:34.033Z,99475.56
2022-11-28T05:31:16.456Z,99487.44
2022-11-28T05:31:58.218Z,99488.28
2022-11-28T05:32:41.067Z,99490.06
2022-11-28T05:33:22.657Z,99487.31
2022-11-28T05:34:04.443Z,99479.88
2022-11-28T05:34:46.039Z,99488.81
2022-11-28T05:35:28.181Z,99493.03
2022-11-28T05:36:13.420Z,99495.53
2022-11-28T05:36:55.293Z,99498.16
2022-11-28T05:37:37.804Z,99486.47
2022-11-28T05:38:19.522Z,99467.38
2022-11-28T05:39:01.289Z,99482.06
2022-11-28T05:39:43.154Z,99482.19
2022-11-28T05:40:24.958Z,99472.44
2022-11-28T05:41:07.164Z,99482.19
2022-11-28T05:41:48.855Z,99472.63
2022-11-28T05:42:34.720Z,99484.00
2022-11-28T05:43:16.419Z,99480.56
2022-11-28T05:43:59.456Z,99479.19
2022-11-28T05:44:41.091Z,99478.84
2022-11-28T05:45:22.745Z,99483.72
2022-11-28T05:46:06.758Z,99481.56
2022-11-28T05:46:48.624Z,99480.38
2022-11-28T05:47:32.392Z,99486.59
2022-11-28T05:48:14.106Z,99467.13
2022-11-28T05:48:56.390Z,99482.34
2022-11-28T05:49:38.077Z,99476.88
2022-11-28T05:50:19.713Z,99490.88
2022-11-28T05:51:06.587Z,99487.28
2022-11-28T05:51:49.002Z,99469.06
2022-11-28T05:52:32.176Z,99491.72
2022-11-28T05:53:13.782Z,99496.66
2022-11-28T05:53:55.586Z,99489.09
2022-11-28T05:54:37.554Z,99471.41
2022-11-28T05:55:19.220Z,99486.41
2022-11-28T05:56:10.015Z,99488.56
2022-11-28T05:56:51.818Z,99467.75
2022-11-28T05:57:33.596Z,99492.16
2022-11-28T05:58:15.306Z,99462.56
2022-11-28T05:58:56.989Z,99460.91
2022-11-28T05:59:38.661Z,99491.41
2022-11-28T06:00:20.863Z,99479.75
2022-11-28T06:01:16.872Z,99448.50
2022-11-28T06:01:58.852Z,99463.84
2022-11-28T06:02:40.588Z,99465.22
2022-11-28T06:03:22.634Z,99468.69
2022-11-28T06:04:04.416Z,99467.06
2022-11-28T06:04:46.199Z,99471.69
2022-11-28T06:05:42.380Z,99462.47
2022-11-28T06:06:29.686Z,99433.16
2022-11-28T06:07:11.352Z,99453.00
2022-11-28T06:07:53.205Z,99428.75
2022-11-28T06:08:34.974Z,99471.88
2022-11-28T06:09:17.064Z,99454.91
2022-11-28T06:09:58.762Z,99466.44
2022-11-28T06:10:40.730Z,99436.72
2022-11-28T06:11:24.294Z,99467.22
2022-11-28T06:12:06.208Z,99430.06
2022-11-28T06:12:48.359Z,99476.72
2022-11-28T06:13:30.217Z,99476.72
2022-11-28T06:14:12.345Z,99471.47
2022-11-28T06:14:54.028Z,99465.91
2022-11-28T06:15:38.137Z,99452.44
2022-11-28T06:16:23.341Z,99434.97
2022-11-28T06:17:05.138Z,99433.31
2022-11-28T06:17:46.834Z,99461.03
2022-11-28T06:18:28.546Z,99472.88
2022-11-28T06:19:12.643Z,99436.31
2022-11-28T06:19:54.579Z,99438.50
2022-11-28T06:20:36.299Z,99468.66
2022-11-28T06:21:17.933Z,99458.59
2022-11-28T06:21:59.620Z,99444.47
2022-11-28T06:22:41.442Z,99465.22
2022-11-28T06:23:23.207Z,99468.69
2022-11-28T06:24:05.197Z,99466.75
2022-11-28T06:24:46.942Z,99459.66
2022-11-28T06:25:29.123Z,99462.31
2022-11-28T06:26:17.732Z,99467.44
2022-11-28T06:26:59.340Z,99458.88
2022-11-28T06:27:41.053Z,99465.09
2022-11-28T06:28:22.953Z,99470.19
2022-11-28T06:29:04.609Z,99464.09
2022-11-28T06:29:46.341Z,99465.22
2022-11-28T06:30:27.987Z,99458.59
2022-11-28T06:31:11.751Z,99465.81
2022-11-28T06:31:53.687Z,99454.81
2022-11-28T06:32:35.379Z,99453.31
2022-11-28T06:33:17.014Z,99453.16
2022-11-28T06:33:58.766Z,99423.06
2022-11-28T06:34:40.388Z,99439.81
2022-11-28T06:35:22.111Z,99378.59
2022-11-28T06:36:05.239Z,99445.97
2022-11-28T06:36:46.924Z,99447.63
2022-11-28T06:37:28.562Z,99462.53
2022-11-28T06:38:14.086Z,99448.50
2022-11-28T06:38:56.227Z,99456.91
2022-11-28T06:39:38.180Z,99433.81
2022-11-28T06:40:19.903Z,99464.59
2022-11-28T06:41:07.615Z,99466.22
2022-11-28T06:41:49.388Z,99439.41
2022-11-28T06:42:36.899Z,99463.59
2022-11-28T06:43:18.560Z,99458.19
2022-11-28T06:44:00.181Z,99459.84
2022-11-28T06:44:41.858Z,99461.50
2022-11-28T06:45:23.561Z,99447.50
2022-11-28T06:46:05.509Z,99463.13
2022-11-28T06:46:47.197Z,99465.47
2022-11-28T06:47:29.059Z,99460.38
2022-11-28T06:48:10.857Z,99462.22
2022-11-28T06:48:53.067Z,99451.38
2022-11-28T06:49:35.696Z,99468.13
2022-11-28T06:50:17.363Z,99451.53
2022-11-28T06:51:04.159Z,99470.59
2022-11-28T06:51:45.947Z,99474.34
2022-11-28T06:52:27.926Z,99472.38
2022-11-28T06:53:09.603Z,99466.59
2022-11-28T06:53:51.397Z,99475.91
2022-11-28T06:54:33.025Z,99477.03
2022-11-28T06:55:14.775Z,99477.34
2022-11-28T06:55:56.490Z,99440.69
2022-11-28T06:56:40.309Z,99461.84
2022-11-28T06:57:22.302Z,99458.38
2022-11-28T06:58:04.099Z,99476.34
2022-11-28T06:58:46.694Z,99480.63
2022-11-28T06:59:28.344Z,99439.97
2022-11-28T07:00:10.444Z,99447.66
2022-11-28T07:00:52.152Z,99485.59
2022-11-28T07:01:34.357Z,99462.34
2022-11-28T07:02:16.233Z,99481.59
2022-11-28T07:02:58.721Z,99451.78
2022-11-28T07:03:41.163Z,99478.97
2022-11-28T07:04:22.975Z,99478.69
2022-11-28T07:05:04.947Z,99453.81
2022-11-28T07:05:46.620Z,99449.00
2022-11-28T07:06:29.250Z,99489.91
2022-11-28T07:07:16.119Z,99483.53
2022-11-28T07:07:58.831Z,99482.03
2022-11-28T07:08:41.053Z,99480.22
2022-11-28T07:09:22.680Z,99495.59
2022-11-28T07:10:05.001Z,99483.13
2022-11-28T07:10:46.745Z,99484.09
2022-11-28T07:11:32.415Z,99476.84
2022-11-28T07:12:14.419Z,99480.75
2022-11-28T07:13:03.802Z,99485.69
2022-11-28T07:13:48.272Z,99481.66
2022-11-28T07:14:33.125Z,99485.25
2022-11-28T07:15:17.178Z,99496.06
2022-11-28T07:15:58.885Z,99497.06
2022-11-28T07:16:43.243Z,99472.63
2022-11-28T07:17:25.043Z,99466.00
2022-11-28T07:18:06.766Z,99493.22
2022-11-28T07:18:49.464Z,99482.19
2022-11-28T07:19:31.196Z,99471.34
2022-11-28T07:20:13.465Z,99482.28
2022-11-28T07:20:55.288Z,99484.44
2022-11-28T07:21:37.097Z,99505.72
2022-11-28T07:22:18.781Z,99507.75
2022-11-28T07:23:00.465Z,99503.47
2022-11-28T07:23:43.498Z,99505.09
2022-11-28T07:24:25.186Z,99501.44
2022-11-28T07:25:07.586Z,99515.97
2022-11-28T07:25:49.188Z,99508.75
2022-11-28T07:26:30.883Z,99507.63
2022-11-28T07:27:12.572Z,99493.94
2022-11-28T07:27:54.213Z,99475.97
2022-11-28T07:28:35.849Z,99476.63
2022-11-28T07:29:18.992Z,99505.78
2022-11-28T07:30:00.658Z,99504.97
2022-11-28T07:30:42.656Z,99487.97
2022-11-28T07:31:26.584Z,99483.59
2022-11-28T07:32:08.409Z,99506.69
2022-11-28T07:32:50.084Z,99489.22
2022-11-28T07:33:33.741Z,99502.09
2022-11-28T07:34:15.442Z,99497.69
2022-11-28T07:34:57.125Z,99490.94
2022-11-28T07:35:38.905Z,99498.88
2022-11-28T07:36:23.334Z,99497.59
2022-11-28T07:37:05.057Z,99479.47
2022-11-28T07:37:46.760Z,99497.13
2022-11-28T07:38:28.619Z,99498.63
2022-11-28T07:39:13.514Z,99476.72
2022-11-28T07:39:55.210Z,99480.84
2022-11-28T07:40:36.927Z,99490.22
2022-11-28T07:41:23.655Z,99488.06
2022-11-28T07:42:07.850Z,99491.16
2022-11-28T07:42:49.823Z,99492.97
2022-11-28T07:43:31.508Z,99489.50
2022-11-28T07:44:17.643Z,99500.16
2022-11-28T07:44:59.569Z,99502.41
2022-11-28T07:45:59.535Z,99496.56
2022-11-28T07:46:42.126Z,99510.81
2022-11-28T07:47:24.537Z,99487.78
2022-11-28T07:48:06.445Z,99504.84
2022-11-28T07:48:48.858Z,99511.44
2022-11-28T07:49:30.810Z,99480.63
2022-11-28T07:50:12.676Z,99505.56
2022-11-28T07:50:54.348Z,99500.19
2022-11-28T07:51:36.051Z,99504.97
2022-11-28T07:52:17.718Z,99506.47
2022-11-28T07:53:02.888Z,99504.53
2022-11-28T07:53:48.926Z,99502.06
2022-11-28T07:54:30.586Z,99480.34
2022-11-28T07:55:12.245Z,99490.44
2022-11-28T07:55:53.930Z,99485.63
2022-11-28T07:57:12.800Z,99495.72
2022-11-28T07:57:39.793Z,99498.06
2022-11-28T07:58:22.181Z,99493.31
2022-11-28T07:59:04.611Z,99509.13
2022-11-28T07:59:46.328Z,99491.00
2022-11-28T08:00:28.266Z,99483.44
2022-11-28T08:01:36.313Z,99510.16
2022-11-28T08:02:18.778Z,99508.34
2022-11-28T08:03:00.735Z,99470.66
2022-11-28T08:03:44.731Z,99503.78
2022-11-28T08:04:28.994Z,99497.03
2022-11-28T08:05:12.737Z,99502.13
2022-11-28T08:06:02.976Z,99496.03
2022-11-28T08:06:45.004Z,99504.75
2022-11-28T08:07:26.844Z,99462.28
2022-11-28T08:08:08.835Z,99502.81
2022-11-28T08:08:52.040Z,99502.66
2022-11-28T08:09:33.813Z,99507.22
2022-11-28T08:10:15.621Z,99498.69
2022-11-28T08:10:59.064Z,99501.44
2022-11-28T08:11:41.134Z,99465.50
2022-11-28T08:12:22.864Z,99503.72
2022-11-28T08:13:04.580Z,99498.78
2022-11-28T08:13:46.852Z,99496.97
2022-11-28T08:14:28.555Z,99499.59
2022-11-28T08:15:10.894Z,99503.88
2022-11-28T08:15:52.698Z,99501.94
2022-11-28T08:16:35.853Z,99466.56
2022-11-28T08:17:17.588Z,99496.72
2022-11-28T08:17:59.232Z,99489.38
2022-11-28T08:18:41.411Z,99480.28
2022-11-28T08:19:29.375Z,99494.50
2022-11-28T08:20:13.852Z,99461.75
2022-11-28T08:21:07.320Z,99487.63
2022-11-28T08:21:48.964Z,99468.34
2022-11-28T08:22:30.980Z,99483.63
2022-11-28T08:23:12.698Z,99491.88
2022-11-28T08:24:00.145Z,99488.28
2022-11-28T08:24:42.353Z,99476.72
2022-11-28T08:25:24.334Z,99490.41
2022-11-28T08:26:09.545Z,99496.72
2022-11-28T08:26:51.219Z,99491.97
2022-11-28T08:27:33.250Z,99493.09
2022-11-28T08:28:14.969Z,99480.53
2022-11-28T08:28:56.917Z,99461.38
2022-11-28T08:29:38.640Z,99488.72
2022-11-28T08:30:20.522Z,99480.31
2022-11-28T08:31:20.225Z,99444.16
2022-11-28T08:32:01.990Z,99471.69
2022-11-28T08:32:43.721Z,99483.22
2022-11-28T08:33:25.670Z,99487.69
2022-11-28T08:34:09.765Z,99484.72
2022-11-28T08:34:51.496Z,99486.72
2022-11-28T08:35:33.213Z,99459.84
2022-11-28T08:36:17.398Z,99479.75
2022-11-28T08:36:59.167Z,99479.28
2022-11-28T08:37:41.024Z,99462.50
2022-11-28T08:38:22.724Z,99487.72
2022-11-28T08:39:23.475Z,99491.50
2022-11-28T08:40:06.844Z,99480.66
2022-11-28T08:40:48.543Z,99496.47
2022-11-28T08:41:30.567Z,99487.44
2022-11-28T08:42:12.375Z,99491.41
2022-11-28T08:42:54.106Z,99484.84
2022-11-28T08:43:37.198Z,99486.16
2022-11-28T08:44:18.977Z,99480.91
2022-11-28T08:45:00.761Z,99487.34
2022-11-28T08:45:42.695Z,99493.25
2022-11-28T08:46:25.174Z,99485.06
2022-11-28T08:47:06.974Z,99480.44
2022-11-28T08:47:48.826Z,99476.66
2022-11-28T08:48:31.058Z,99478.16
2022-11-28T08:49:12.986Z,99484.22
2022-11-28T08:49:54.692Z,99459.56
2022-11-28T08:50:36.440Z,99447.72
2022-11-28T08:51:26.237Z,99489.03
2022-11-28T08:52:08.047Z,99477.69
2022-11-28T08:52:50.039Z,99487.38
2022-11-28T08:53:32.260Z,99478.50
2022-11-28T08:54:14.007Z,99459.59
2022-11-28T08:54:55.748Z,99479.50
2022-11-28T08:55:41.802Z,99475.38
2022-11-28T08:56:23.983Z,99471.25
2022-11-28T08:57:05.717Z,99474.03
2022-11-28T08:57:47.614Z,99467.09
2022-11-28T08:58:29.381Z,99453.59
2022-11-28T08:59:11.064Z,99468.06
2022-11-28T08:59:52.792Z,99468.88
2022-11-28T09:00:34.564Z,99479.56
2022-11-28T09:01:19.252Z,99479.25
2022-11-28T09:02:01.022Z,99446.03
2022-11-28T09:02:42.783Z,99454.41